Rina Amoretti — IBRR — position and weather

sailwx.info

Track history (hours):
 
Tides and Currents Weather Stations Pressure Air Temp Water Temp Dewpoint Dewpoint Depression Visibility Wind Speed Wind Dir Waves Ship Positions

Rina Amoretti

Last reported at 2017-Feb-25 01:33 UTC. Time now 2017-Feb-25 02:24 UTC.
Position N 38°19' E 015°26'.

Length 120 m; draft 8.1 m.

Type: Ship (hazmat cat A). MMSI: 247197000.

Date/timePositionNaut miles runAvg speedWind from/ knotsBaromVisibWave heightAir tempDewpointWater temp
2017-Feb-25 01:33N 38°19' E 015°26'1212.3
2017-Feb-25 00:33N 38°18' E 015°42'1010.3
2017-Feb-24 23:33N 38°09' E 015°37'1111.4
2017-Feb-24 22:33N 37°58' E 015°34'1412.4
2017-Feb-24 21:27N 37°44' E 015°31'  
2017-Feb-21 09:16N 37°45' E 015°31'1013.9
2017-Feb-21 08:33N 37°55' E 015°33'1414.0
2017-Feb-21 07:34N 38°08' E 015°35'1110.5
2017-Feb-21 06:33N 38°19' E 015°36'1313.4
2017-Feb-21 05:33N 38°19' E 015°19'1413.9
2017-Feb-21 04:33N 38°17' E 015°02'1313.3
2017-Feb-21 03:32N 38°16' E 014°45'5513.7
2017-Feb-20 23:32N 38°10' E 013°35'8 7.6
2017-Feb-20 22:30N 38°06' E 013°26'0 0.0
2017-Feb-20 21:30N 38°06' E 013°26'0 0.0
2017-Feb-20 20:30N 38°06' E 013°26'0 0.0
2017-Feb-20 19:33N 38°06' E 013°26'0 0.0
2017-Feb-20 18:33N 38°06' E 013°26'0 0.0
2017-Feb-20 17:30N 38°06' E 013°26'0 0.0
2017-Feb-20 16:30N 38°06' E 013°26'0 0.0
2017-Feb-20 15:33N 38°06' E 013°26'0 0.0
2017-Feb-20 14:21N 38°06' E 013°26'0 0.0
2017-Feb-20 13:33N 38°06' E 013°26'0 0.0
2017-Feb-20 12:33N 38°06' E 013°26'0 0.0
2017-Feb-20 11:33N 38°06' E 013°26'0 0.0
2017-Feb-20 10:33N 38°06' E 013°26'0 0.0
2017-Feb-20 09:24N 38°06' E 013°26'0 0.0
2017-Feb-20 08:24N 38°06' E 013°26'0 0.0
2017-Feb-20 07:27N 38°06' E 013°26'0 0.3
2017-Feb-20 06:33N 38°06' E 013°27'1 0.8
2017-Feb-20 05:32N 38°07' E 013°26'0 0.0
2017-Feb-20 04:32N 38°07' E 013°26'0 0.0
2017-Feb-20 03:23N 38°07' E 013°26'0 0.0
2017-Feb-20 02:23N 38°07' E 013°26'0 0.1
2017-Feb-20 01:23N 38°07' E 013°26'4 5.1
2017-Feb-20 00:33N 38°09' E 013°31'5312.5
2017-Feb-19 20:19N 38°15' E 014°38'1113.3
2017-Feb-19 19:29N 38°16' E 014°52'1212.7
2017-Feb-19 18:34N 38°18' E 015°07'1212.3
2017-Feb-19 17:33N 38°19' E 015°23'1312.7
2017-Feb-19 16:33N 38°19' E 015°39'8 8.0
2017-Feb-19 15:34N 38°11' E 015°37'1110.9
2017-Feb-19 14:33N 38°00' E 015°35'1211.5
2017-Feb-19 13:34N 37°49' E 015°32'1212.2
2017-Feb-19 12:34N 37°37' E 015°28'3 0.1
2017-Feb-18 04:32N 37°40' E 015°26'1413.9
2017-Feb-18 03:33N 37°53' E 015°30'1413.9
2017-Feb-18 02:34N 38°07' E 015°35'1313.1
2017-Feb-18 01:33N 38°19' E 015°40'1312.8
2017-Feb-18 00:32N 38°31' E 015°34'1212.2
2017-Feb-17 23:33N 38°42' E 015°28'7 0.1
2017-Feb-15 21:22N 38°48' E 015°24'1113.3
2017-Feb-15 20:33N 38°38' E 015°29'1313.1
2017-Feb-15 19:33N 38°27' E 015°37'1111.5
2017-Feb-15 18:33N 38°16' E 015°42'1010.4
2017-Feb-15 17:33N 38°06' E 015°36'1111.2
2017-Feb-15 16:33N 37°56' E 015°32'1312.6
2017-Feb-15 15:33N 37°43' E 015°28'  
Track history (hours):
 
Tides and Currents Weather Stations Pressure Air Temp Water Temp Dewpoint Dewpoint Depression Visibility Wind Speed Wind Dir Waves Ship Positions

Rina Amoretti

Last reported at 2017-Feb-25 01:33 UTC. Time now 2017-Feb-25 02:24 UTC.
Position N 38°19' E 015°26'.

Length 120 m; draft 8.1 m.

Type: Ship (hazmat cat A). MMSI: 247197000.

Date/timePositionNaut miles runAvg speedWind from/ knotsBaromVisibWave heightAir tempDewpointWater temp
2017-Feb-25 01:33N 38°19' E 015°26'1212.3
2017-Feb-25 00:33N 38°18' E 015°42'1010.3
2017-Feb-24 23:33N 38°09' E 015°37'1111.4
2017-Feb-24 22:33N 37°58' E 015°34'1412.4
2017-Feb-24 21:27N 37°44' E 015°31'  
2017-Feb-21 09:16N 37°45' E 015°31'1013.9
2017-Feb-21 08:33N 37°55' E 015°33'1414.0
2017-Feb-21 07:34N 38°08' E 015°35'1110.5
2017-Feb-21 06:33N 38°19' E 015°36'1313.4
2017-Feb-21 05:33N 38°19' E 015°19'1413.9
2017-Feb-21 04:33N 38°17' E 015°02'1313.3
2017-Feb-21 03:32N 38°16' E 014°45'5513.7
2017-Feb-20 23:32N 38°10' E 013°35'8 7.6
2017-Feb-20 22:30N 38°06' E 013°26'0 0.0
2017-Feb-20 21:30N 38°06' E 013°26'0 0.0
2017-Feb-20 20:30N 38°06' E 013°26'0 0.0
2017-Feb-20 19:33N 38°06' E 013°26'0 0.0
2017-Feb-20 18:33N 38°06' E 013°26'0 0.0
2017-Feb-20 17:30N 38°06' E 013°26'0 0.0
2017-Feb-20 16:30N 38°06' E 013°26'0 0.0
2017-Feb-20 15:33N 38°06' E 013°26'0 0.0
2017-Feb-20 14:21N 38°06' E 013°26'0 0.0
2017-Feb-20 13:33N 38°06' E 013°26'0 0.0
2017-Feb-20 12:33N 38°06' E 013°26'0 0.0
2017-Feb-20 11:33N 38°06' E 013°26'0 0.0
2017-Feb-20 10:33N 38°06' E 013°26'0 0.0
2017-Feb-20 09:24N 38°06' E 013°26'0 0.0
2017-Feb-20 08:24N 38°06' E 013°26'0 0.0
2017-Feb-20 07:27N 38°06' E 013°26'0 0.3
2017-Feb-20 06:33N 38°06' E 013°27'1 0.8
2017-Feb-20 05:32N 38°07' E 013°26'0 0.0
2017-Feb-20 04:32N 38°07' E 013°26'0 0.0
2017-Feb-20 03:23N 38°07' E 013°26'0 0.0
2017-Feb-20 02:23N 38°07' E 013°26'0 0.1
2017-Feb-20 01:23N 38°07' E 013°26'4 5.1
2017-Feb-20 00:33N 38°09' E 013°31'5312.5
2017-Feb-19 20:19N 38°15' E 014°38'1113.3
2017-Feb-19 19:29N 38°16' E 014°52'1212.7
2017-Feb-19 18:34N 38°18' E 015°07'1212.3
2017-Feb-19 17:33N 38°19' E 015°23'1312.7
2017-Feb-19 16:33N 38°19' E 015°39'8 8.0
2017-Feb-19 15:34N 38°11' E 015°37'1110.9
2017-Feb-19 14:33N 38°00' E 015°35'1211.5
2017-Feb-19 13:34N 37°49' E 015°32'1212.2
2017-Feb-19 12:34N 37°37' E 015°28'3 0.1
2017-Feb-18 04:32N 37°40' E 015°26'1413.9
2017-Feb-18 03:33N 37°53' E 015°30'1413.9
2017-Feb-18 02:34N 38°07' E 015°35'1313.1
2017-Feb-18 01:33N 38°19' E 015°40'1312.8
2017-Feb-18 00:32N 38°31' E 015°34'1212.2
2017-Feb-17 23:33N 38°42' E 015°28'7 0.1
2017-Feb-15 21:22N 38°48' E 015°24'1113.3
2017-Feb-15 20:33N 38°38' E 015°29'1313.1
2017-Feb-15 19:33N 38°27' E 015°37'1111.5
2017-Feb-15 18:33N 38°16' E 015°42'1010.4
2017-Feb-15 17:33N 38°06' E 015°36'1111.2
2017-Feb-15 16:33N 37°56' E 015°32'1312.6
2017-Feb-15 15:33N 37°43' E 015°28'  

Dump ship's entire track history